Terminal Aerodrome Forecast
Issued by NWS

Home | Current Version | Previous Version | Text Only | Print | Product List | Glossary On
Versions: 1 2 3 4 5 6 7 8 9 10 11 12 13 14
000
FTPA31 PHFO 262321
TAFHJH
TAF
PHJH 262321Z 2700/2724 01015KT P6SM FEW030 SCT050
     FM270600 05007KT P6SM FEW025 SCT045
     FM272100 03013KT P6SM FEW030 SCT050=

USA.gov is the U.S. government's official web portal to all federal, state and local government web resources and services.